sensor_id;sensor_type;location;lat;lon;timestamp;pressure;altitude;pressure_sealevel;temperature;humidity
11099;BME280;12223;42.650;23.364;2023-04-01T00:01:14;93869.63;;;9.64;100.00
11099;BME280;12223;42.650;23.364;2023-04-01T00:03:41;93868.16;;;9.56;100.00
11099;BME280;12223;42.650;23.364;2023-04-01T00:06:08;93879.81;;;9.72;100.00
11099;BME280;12223;42.650;23.364;2023-04-01T00:08:35;93881.41;;;9.73;100.00
11099;BME280;12223;42.650;23.364;2023-04-01T00:11:02;93881.59;;;9.83;100.00
11099;BME280;12223;42.650;23.364;2023-04-01T00:13:28;93877.84;;;9.79;100.00
11099;BME280;12223;42.650;23.364;2023-04-01T00:15:56;93876.94;;;9.74;100.00
11099;BME280;12223;42.650;23.364;2023-04-01T00:18:23;93875.81;;;9.69;100.00
11099;BME280;12223;42.650;23.364;2023-04-01T00:20:50;93882.94;;;9.57;100.00
11099;BME280;12223;42.650;23.364;2023-04-01T00:23:17;93884.50;;;9.42;100.00
11099;BME280;12223;42.650;23.364;2023-04-01T00:25:44;93887.28;;;9.35;100.00
11099;BME280;12223;42.650;23.364;2023-04-01T00:28:12;93883.00;;;9.46;100.00
11099;BME280;12223;42.650;23.364;2023-04-01T00:30:39;93884.81;;;9.45;100.00
11099;BME280;12223;42.650;23.364;2023-04-01T00:33:07;93886.63;;;9.16;100.00
11099;BME280;12223;42.650;23.364;2023-04-01T00:35:34;93887.28;;;9.35;100.00
11099;BME280;12223;42.650;23.364;2023-04-01T00:38:00;93881.97;;;9.47;100.00
11099;BME280;12223;42.650;23.364;2023-04-01T00:40:29;93878.19;;;9.43;100.00
11099;BME280;12223;42.650;23.364;2023-04-01T00:42:56;93870.66;;;9.35;100.00
11099;BME280;12223;42.650;23.364;2023-04-01T00:45:25;93869.88;;;9.22;100.00
11099;BME280;12223;42.650;23.364;2023-04-01T00:47:52;93857.91;;;9.03;100.00
11099;BME280;12223;42.650;23.364;2023-04-01T00:50:20;93849.50;;;9.18;100.00
11099;BME280;12223;42.650;23.364;2023-04-01T00:52:48;93845.34;;;9.34;100.00
11099;BME280;12223;42.650;23.364;2023-04-01T00:55:14;93847.97;;;9.34;100.00
11099;BME280;12223;42.650;23.364;2023-04-01T00:57:43;93842.84;;;9.27;100.00
11099;BME280;12223;42.650;23.364;2023-04-01T01:00:11;93842.44;;;9.07;100.00
11099;BME280;12223;42.650;23.364;2023-04-01T01:02:40;93837.03;;;9.13;100.00
11099;BME280;12223;42.650;23.364;2023-04-01T01:05:07;93838.44;;;8.93;100.00
11099;BME280;12223;42.650;23.364;2023-04-01T01:07:36;93828.72;;;8.93;100.00
11099;BME280;12223;42.650;23.364;2023-04-01T01:10:07;93819.50;;;8.56;100.00
11099;BME280;12223;42.650;23.364;2023-04-01T01:12:39;93817.19;;;8.71;100.00
11099;BME280;12223;42.650;23.364;2023-04-01T01:15:08;93799.25;;;8.56;100.00
11099;BME280;12223;42.650;23.364;2023-04-01T01:17:41;93796.72;;;8.38;100.00
11099;BME280;12223;42.650;23.364;2023-04-01T01:20:20;93795.25;;;8.65;100.00
11099;BME280;12223;42.650;23.364;2023-04-01T01:22:54;93794.28;;;8.83;100.00
11099;BME280;12223;42.650;23.364;2023-04-01T01:25:32;93797.91;;;8.94;100.00
11099;BME280;12223;42.650;23.364;2023-04-01T01:28:05;93796.41;;;9.09;100.00
11099;BME280;12223;42.650;23.364;2023-04-01T01:30:37;93798.53;;;8.72;100.00
11099;BME280;12223;42.650;23.364;2023-04-01T01:33:06;93787.38;;;8.94;100.00
11099;BME280;12223;42.650;23.364;2023-04-01T01:35:41;93780.16;;;9.01;100.00
11099;BME280;12223;42.650;23.364;2023-04-01T01:38:12;93772.13;;;9.07;100.00
11099;BME280;12223;42.650;23.364;2023-04-01T01:40:41;93772.59;;;9.33;100.00
11099;BME280;12223;42.650;23.364;2023-04-01T01:43:09;93773.91;;;9.47;100.00
11099;BME280;12223;42.650;23.364;2023-04-01T01:45:39;93787.25;;;9.40;100.00
11099;BME280;12223;42.650;23.364;2023-04-01T01:48:07;93797.63;;;9.47;100.00
11099;BME280;12223;42.650;23.364;2023-04-01T01:50:35;93782.38;;;9.49;100.00
11099;BME280;12223;42.650;23.364;2023-04-01T01:53:04;93777.75;;;9.56;100.00
11099;BME280;12223;42.650;23.364;2023-04-01T01:55:32;93773.94;;;9.63;100.00
11099;BME280;12223;42.650;23.364;2023-04-01T01:57:59;93761.50;;;9.76;100.00
11099;BME280;12223;42.650;23.364;2023-04-01T02:00:27;93754.97;;;9.50;100.00
11099;BME280;12223;42.650;23.364;2023-04-01T02:02:54;93754.69;;;9.63;100.00
11099;BME280;12223;42.650;23.364;2023-04-01T02:05:22;93762.06;;;9.78;100.00
11099;BME280;12223;42.650;23.364;2023-04-01T02:07:51;93754.00;;;9.84;100.00
11099;BME280;12223;42.650;23.364;2023-04-01T02:10:21;93747.34;;;9.20;100.00
11099;BME280;12223;42.650;23.364;2023-04-01T02:12:49;93738.72;;;9.53;100.00
11099;BME280;12223;42.650;23.364;2023-04-01T02:15:17;93741.03;;;9.66;100.00
11099;BME280;12223;42.650;23.364;2023-04-01T02:17:46;93740.78;;;9.67;100.00
11099;BME280;12223;42.650;23.364;2023-04-01T02:20:15;93746.66;;;9.86;100.00
11099;BME280;12223;42.650;23.364;2023-04-01T02:22:43;93745.09;;;10.07;100.00
11099;BME280;12223;42.650;23.364;2023-04-01T02:25:12;93736.59;;;10.17;96.03
11099;BME280;12223;42.650;23.364;2023-04-01T02:27:41;93739.78;;;10.19;95.27
11099;BME280;12223;42.650;23.364;2023-04-01T02:30:10;93729.06;;;10.25;93.36
11099;BME280;12223;42.650;23.364;2023-04-01T02:32:37;93731.63;;;10.37;90.38
11099;BME280;12223;42.650;23.364;2023-04-01T02:35:05;93737.59;;;10.32;91.77
11099;BME280;12223;42.650;23.364;2023-04-01T02:37:31;93744.94;;;10.47;91.18
11099;BME280;12223;42.650;23.364;2023-04-01T02:39:58;93739.94;;;10.51;91.86
11099;BME280;12223;42.650;23.364;2023-04-01T02:42:25;93747.16;;;10.55;91.92
11099;BME280;12223;42.650;23.364;2023-04-01T02:44:53;93746.41;;;10.21;98.18
11099;BME280;12223;42.650;23.364;2023-04-01T02:47:19;93754.91;;;10.23;97.37
11099;BME280;12223;42.650;23.364;2023-04-01T02:49:46;93747.78;;;10.24;94.14
11099;BME280;12223;42.650;23.364;2023-04-01T02:52:12;93755.69;;;10.24;95.75
11099;BME280;12223;42.650;23.364;2023-04-01T02:54:39;93760.00;;;10.30;96.36
11099;BME280;12223;42.650;23.364;2023-04-01T02:57:05;93755.91;;;10.39;96.34
11099;BME280;12223;42.650;23.364;2023-04-01T02:59:32;93754.16;;;10.28;96.88
11099;BME280;12223;42.650;23.364;2023-04-01T03:02:00;93759.59;;;10.04;100.00
11099;BME280;12223;42.650;23.364;2023-04-01T03:04:26;93775.19;;;10.23;100.00
11099;BME280;12223;42.650;23.364;2023-04-01T03:06:53;93771.81;;;10.11;97.90
11099;BME280;12223;42.650;23.364;2023-04-01T03:09:20;93774.19;;;10.12;98.95
11099;BME280;12223;42.650;23.364;2023-04-01T03:11:46;93780.72;;;10.21;98.75
11099;BME280;12223;42.650;23.364;2023-04-01T03:14:13;93771.31;;;10.14;99.55
11099;BME280;12223;42.650;23.364;2023-04-01T03:16:40;93782.75;;;10.02;100.00
11099;BME280;12223;42.650;23.364;2023-04-01T03:19:07;93780.00;;;9.64;100.00
11099;BME280;12223;42.650;23.364;2023-04-01T03:21:34;93781.75;;;9.42;100.00
11099;BME280;12223;42.650;23.364;2023-04-01T03:24:01;93783.38;;;9.76;100.00
11099;BME280;12223;42.650;23.364;2023-04-01T03:26:27;93784.84;;;9.84;100.00
11099;BME280;12223;42.650;23.364;2023-04-01T03:28:54;93803.00;;;9.97;100.00
11099;BME280;12223;42.650;23.364;2023-04-01T03:31:21;93787.31;;;9.90;100.00
11099;BME280;12223;42.650;23.364;2023-04-01T03:33:47;93783.56;;;10.03;100.00
11099;BME280;12223;42.650;23.364;2023-04-01T03:36:15;93784.44;;;9.92;100.00
11099;BME280;12223;42.650;23.364;2023-04-01T03:38:42;93787.00;;;10.03;100.00
11099;BME280;12223;42.650;23.364;2023-04-01T03:41:11;93786.94;;;10.15;100.00
11099;BME280;12223;42.650;23.364;2023-04-01T03:43:38;93770.44;;;10.08;100.00
11099;BME280;12223;42.650;23.364;2023-04-01T03:46:04;93767.41;;;10.16;100.00
11099;BME280;12223;42.650;23.364;2023-04-01T03:48:31;93767.22;;;10.18;100.00
11099;BME280;12223;42.650;23.364;2023-04-01T03:50:57;93762.97;;;10.17;100.00
11099;BME280;12223;42.650;23.364;2023-04-01T03:53:25;93744.56;;;10.22;100.00
11099;BME280;12223;42.650;23.364;2023-04-01T03:55:52;93727.63;;;10.18;100.00
11099;BME280;12223;42.650;23.364;2023-04-01T03:58:19;93709.84;;;10.13;100.00
11099;BME280;12223;42.650;23.364;2023-04-01T04:00:45;93716.91;;;10.07;100.00
11099;BME280;12223;42.650;23.364;2023-04-01T04:03:12;93688.75;;;10.13;100.00
11099;BME280;12223;42.650;23.364;2023-04-01T04:05:45;93681.56;;;10.25;100.00
11099;BME280;12223;42.650;23.364;2023-04-01T04:08:12;93686.66;;;10.32;100.00
11099;BME280;12223;42.650;23.364;2023-04-01T04:10:40;93685.56;;;10.28;100.00
11099;BME280;12223;42.650;23.364;2023-04-01T04:13:06;93680.47;;;10.21;100.00
11099;BME280;12223;42.650;23.364;2023-04-01T04:15:33;93683.97;;;10.10;100.00
11099;BME280;12223;42.650;23.364;2023-04-01T04:17:59;93672.69;;;10.15;96.46
11099;BME280;12223;42.650;23.364;2023-04-01T04:20:26;93669.34;;;10.19;95.08
11099;BME280;12223;42.650;23.364;2023-04-01T04:22:52;93651.00;;;10.13;98.29
11099;BME280;12223;42.650;23.364;2023-04-01T04:25:19;93664.53;;;10.16;96.08
11099;BME280;12223;42.650;23.364;2023-04-01T04:27:50;93662.78;;;10.22;94.52
11099;BME280;12223;42.650;23.364;2023-04-01T04:33:24;93652.84;;;10.29;93.26
11099;BME280;12223;42.650;23.364;2023-04-01T04:35:50;93644.69;;;10.30;93.77
11099;BME280;12223;42.650;23.364;2023-04-01T04:38:17;93636.47;;;10.27;93.46
11099;BME280;12223;42.650;23.364;2023-04-01T04:40:44;93631.50;;;10.30;91.54
11099;BME280;12223;42.650;23.364;2023-04-01T04:43:12;93628.88;;;10.30;91.35
11099;BME280;12223;42.650;23.364;2023-04-01T04:45:39;93620.44;;;10.33;90.77
11099;BME280;12223;42.650;23.364;2023-04-01T04:48:06;93611.72;;;10.33;89.43
11099;BME280;12223;42.650;23.364;2023-04-01T04:50:36;93611.78;;;10.38;88.76
11099;BME280;12223;42.650;23.364;2023-04-01T04:53:10;93611.31;;;10.41;89.62
11099;BME280;12223;42.650;23.364;2023-04-01T04:55:37;93605.13;;;10.30;89.63
11099;BME280;12223;42.650;23.364;2023-04-01T04:58:06;93596.13;;;10.09;90.49
11099;BME280;12223;42.650;23.364;2023-04-01T05:00:34;93594.13;;;10.00;93.29
11099;BME280;12223;42.650;23.364;2023-04-01T05:03:01;93592.69;;;10.09;93.62
11099;BME280;12223;42.650;23.364;2023-04-01T05:05:27;93599.84;;;10.14;93.33
11099;BME280;12223;42.650;23.364;2023-04-01T05:07:54;93600.09;;;10.12;93.16
11099;BME280;12223;42.650;23.364;2023-04-01T05:10:20;93595.09;;;10.11;93.49
11099;BME280;12223;42.650;23.364;2023-04-01T05:12:47;93592.00;;;9.97;97.17
11099;BME280;12223;42.650;23.364;2023-04-01T05:15:13;93599.56;;;10.10;98.03
11099;BME280;12223;42.650;23.364;2023-04-01T05:17:41;93590.78;;;10.04;99.62
11099;BME280;12223;42.650;23.364;2023-04-01T05:20:08;93591.97;;;9.75;100.00
11099;BME280;12223;42.650;23.364;2023-04-01T05:22:39;93574.53;;;9.74;100.00
11099;BME280;12223;42.650;23.364;2023-04-01T05:25:06;93587.31;;;9.82;100.00
11099;BME280;12223;42.650;23.364;2023-04-01T05:27:32;93577.63;;;9.88;100.00
11099;BME280;12223;42.650;23.364;2023-04-01T05:29:59;93568.31;;;10.02;100.00
11099;BME280;12223;42.650;23.364;2023-04-01T05:32:25;93568.38;;;10.07;100.00
11099;BME280;12223;42.650;23.364;2023-04-01T05:34:53;93572.94;;;10.12;100.00
11099;BME280;12223;42.650;23.364;2023-04-01T05:37:20;93577.56;;;10.21;100.00
11099;BME280;12223;42.650;23.364;2023-04-01T05:39:48;93555.19;;;10.51;95.94
11099;BME280;12223;42.650;23.364;2023-04-01T05:42:14;93564.91;;;10.45;95.57
11099;BME280;12223;42.650;23.364;2023-04-01T05:44:44;93576.63;;;10.32;94.07
11099;BME280;12223;42.650;23.364;2023-04-01T05:47:11;93577.75;;;11.17;92.00
11099;BME280;12223;42.650;23.364;2023-04-01T05:49:37;93573.00;;;12.45;80.10
11099;BME280;12223;42.650;23.364;2023-04-01T05:52:06;93567.88;;;13.21;69.35
11099;BME280;12223;42.650;23.364;2023-04-01T05:54:33;93561.81;;;14.51;62.38
11099;BME280;12223;42.650;23.364;2023-04-01T05:56:59;93549.38;;;16.39;53.91
11099;BME280;12223;42.650;23.364;2023-04-01T05:59:26;93545.19;;;16.33;52.33
11099;BME280;12223;42.650;23.364;2023-04-01T06:01:52;93539.91;;;17.32;48.82
11099;BME280;12223;42.650;23.364;2023-04-01T06:04:19;93542.97;;;19.58;42.44
11099;BME280;12223;42.650;23.364;2023-04-01T06:06:46;93544.00;;;15.34;51.08
11099;BME280;12223;42.650;23.364;2023-04-01T06:09:14;93544.69;;;16.07;49.04
11099;BME280;12223;42.650;23.364;2023-04-01T06:11:43;93555.66;;;14.60;54.21
11099;BME280;12223;42.650;23.364;2023-04-01T06:14:17;93553.28;;;15.03;53.86
11099;BME280;12223;42.650;23.364;2023-04-01T06:16:51;93558.88;;;14.52;55.09
11099;BME280;12223;42.650;23.364;2023-04-01T06:19:25;93555.75;;;14.25;55.32
11099;BME280;12223;42.650;23.364;2023-04-01T06:22:12;93551.94;;;13.36;59.39
11099;BME280;12223;42.650;23.364;2023-04-01T06:24:46;93547.72;;;12.12;62.82
11099;BME280;12223;42.650;23.364;2023-04-01T06:27:17;93551.16;;;12.18;65.93
11099;BME280;12223;42.650;23.364;2023-04-01T06:29:52;93538.47;;;11.73;67.76
11099;BME280;12223;42.650;23.364;2023-04-01T06:32:33;93543.56;;;12.36;66.95
11099;BME280;12223;42.650;23.364;2023-04-01T06:35:12;93542.84;;;12.66;65.97
11099;BME280;12223;42.650;23.364;2023-04-01T06:37:48;93544.78;;;13.42;63.96
11099;BME280;12223;42.650;23.364;2023-04-01T06:43:06;93526.81;;;11.26;76.45
11099;BME280;12223;42.650;23.364;2023-04-01T06:45:38;93504.06;;;11.25;80.69
11099;BME280;12223;42.650;23.364;2023-04-01T06:48:12;93517.72;;;11.91;78.24
11099;BME280;12223;42.650;23.364;2023-04-01T06:50:43;93522.19;;;11.91;78.82
11099;BME280;12223;42.650;23.364;2023-04-01T06:53:12;93515.44;;;11.26;86.38
11099;BME280;12223;42.650;23.364;2023-04-01T06:55:41;93514.13;;;11.23;91.91
11099;BME280;12223;42.650;23.364;2023-04-01T06:58:13;93506.50;;;10.95;97.69
11099;BME280;12223;42.650;23.364;2023-04-01T07:00:44;93506.16;;;11.65;93.12
11099;BME280;12223;42.650;23.364;2023-04-01T07:03:15;93507.47;;;12.10;88.62
11099;BME280;12223;42.650;23.364;2023-04-01T07:05:43;93494.22;;;12.10;86.07
11099;BME280;12223;42.650;23.364;2023-04-01T07:08:11;93496.00;;;11.89;89.53
11099;BME280;12223;42.650;23.364;2023-04-01T07:10:41;93488.66;;;11.54;94.83
11099;BME280;12223;42.650;23.364;2023-04-01T07:13:13;93497.09;;;11.98;94.00
11099;BME280;12223;42.650;23.364;2023-04-01T07:15:44;93508.66;;;12.60;88.63
11099;BME280;12223;42.650;23.364;2023-04-01T07:18:12;93496.78;;;12.98;82.68
11099;BME280;12223;42.650;23.364;2023-04-01T07:20:41;93487.56;;;13.20;80.26
11099;BME280;12223;42.650;23.364;2023-04-01T07:23:10;93475.56;;;12.57;84.62
11099;BME280;12223;42.650;23.364;2023-04-01T07:25:44;93474.69;;;12.21;89.28
11099;BME280;12223;42.650;23.364;2023-04-01T07:28:15;93494.31;;;12.30;89.00
11099;BME280;12223;42.650;23.364;2023-04-01T07:30:45;93492.22;;;12.47;88.60
11099;BME280;12223;42.650;23.364;2023-04-01T07:33:16;93487.16;;;12.31;88.96
11099;BME280;12223;42.650;23.364;2023-04-01T07:35:46;93474.25;;;12.75;85.58
11099;BME280;12223;42.650;23.364;2023-04-01T07:38:19;93497.84;;;13.07;83.54
11099;BME280;12223;42.650;23.364;2023-04-01T07:40:50;93494.13;;;13.48;79.31
11099;BME280;12223;42.650;23.364;2023-04-01T07:43:28;93485.84;;;13.75;76.51
11099;BME280;12223;42.650;23.364;2023-04-01T07:46:00;93488.75;;;13.79;75.41
11099;BME280;12223;42.650;23.364;2023-04-01T07:48:30;93482.50;;;13.19;77.12
11099;BME280;12223;42.650;23.364;2023-04-01T07:51:00;93473.72;;;13.03;81.28
11099;BME280;12223;42.650;23.364;2023-04-01T07:53:30;93473.75;;;13.18;80.65
11099;BME280;12223;42.650;23.364;2023-04-01T07:56:02;93470.81;;;13.45;79.01
11099;BME280;12223;42.650;23.364;2023-04-01T07:58:33;93474.19;;;13.66;76.98
11099;BME280;12223;42.650;23.364;2023-04-01T08:01:03;93482.66;;;13.83;75.24
11099;BME280;12223;42.650;23.364;2023-04-01T08:03:33;93482.91;;;13.82;75.43
11099;BME280;12223;42.650;23.364;2023-04-01T08:06:04;93475.84;;;13.11;80.70
11099;BME280;12223;42.650;23.364;2023-04-01T08:08:36;93464.44;;;13.11;80.46
11099;BME280;12223;42.650;23.364;2023-04-01T08:11:09;93460.50;;;13.08;82.15
11099;BME280;12223;42.650;23.364;2023-04-01T08:13:39;93457.06;;;13.13;82.04
11099;BME280;12223;42.650;23.364;2023-04-01T08:16:12;93455.16;;;13.49;80.23
11099;BME280;12223;42.650;23.364;2023-04-01T08:18:44;93456.13;;;13.78;76.80
11099;BME280;12223;42.650;23.364;2023-04-01T08:21:14;93461.59;;;14.07;74.74
11099;BME280;12223;42.650;23.364;2023-04-01T08:23:43;93443.94;;;14.31;71.00
11099;BME280;12223;42.650;23.364;2023-04-01T08:26:12;93446.59;;;14.41;70.00
11099;BME280;12223;42.650;23.364;2023-04-01T08:28:43;93437.03;;;14.79;67.70
11099;BME280;12223;42.650;23.364;2023-04-01T08:31:12;93423.53;;;15.05;65.52
11099;BME280;12223;42.650;23.364;2023-04-01T08:33:38;93419.13;;;15.19;64.02
11099;BME280;12223;42.650;23.364;2023-04-01T08:36:07;93412.75;;;14.91;65.71
11099;BME280;12223;42.650;23.364;2023-04-01T08:38:38;93400.19;;;14.97;65.00
11099;BME280;12223;42.650;23.364;2023-04-01T08:41:13;93398.56;;;14.28;68.10
11099;BME280;12223;42.650;23.364;2023-04-01T08:44:04;93389.09;;;14.89;65.64
11099;BME280;12223;42.650;23.364;2023-04-01T08:46:38;93379.78;;;14.58;65.19
11099;BME280;12223;42.650;23.364;2023-04-01T08:49:13;93382.53;;;14.43;65.46
11099;BME280;12223;42.650;23.364;2023-04-01T08:51:48;93385.53;;;14.70;65.79
11099;BME280;12223;42.650;23.364;2023-04-01T08:54:34;93369.31;;;14.72;64.82
11099;BME280;12223;42.650;23.364;2023-04-01T08:57:04;93362.78;;;14.59;63.19
11099;BME280;12223;42.650;23.364;2023-04-01T09:02:25;93374.69;;;14.67;61.99
11099;BME280;12223;42.650;23.364;2023-04-01T09:05:06;93385.03;;;15.26;61.35
11099;BME280;12223;42.650;23.364;2023-04-01T09:07:39;93367.03;;;14.55;61.87
11099;BME280;12223;42.650;23.364;2023-04-01T09:13:05;93374.06;;;15.56;60.11
11099;BME280;12223;42.650;23.364;2023-04-01T09:15:43;93370.34;;;15.57;57.74
11099;BME280;12223;42.650;23.364;2023-04-01T09:21:03;93371.66;;;14.78;59.76
11099;BME280;12223;42.650;23.364;2023-04-01T09:23:44;93371.91;;;15.11;59.41
11099;BME280;12223;42.650;23.364;2023-04-01T09:26:18;93368.94;;;15.12;57.54
11099;BME280;12223;42.650;23.364;2023-04-01T09:28:53;93349.78;;;15.15;55.38
11099;BME280;12223;42.650;23.364;2023-04-01T09:31:25;93346.94;;;15.30;55.80
11099;BME280;12223;42.650;23.364;2023-04-01T09:34:02;93340.25;;;15.09;55.74
11099;BME280;12223;42.650;23.364;2023-04-01T09:36:42;93337.16;;;15.26;54.50
11099;BME280;12223;42.650;23.364;2023-04-01T09:39:32;93340.19;;;15.38;54.62
11099;BME280;12223;42.650;23.364;2023-04-01T09:42:07;93332.56;;;15.32;54.01
11099;BME280;12223;42.650;23.364;2023-04-01T09:44:34;93327.69;;;15.62;53.26
11099;BME280;12223;42.650;23.364;2023-04-01T09:47:04;93326.38;;;15.84;52.81
11099;BME280;12223;42.650;23.364;2023-04-01T09:52:20;93317.69;;;15.97;50.09
11099;BME280;12223;42.650;23.364;2023-04-01T09:57:52;93291.34;;;15.77;49.81
11099;BME280;12223;42.650;23.364;2023-04-01T10:03:21;93295.94;;;15.90;49.15
11099;BME280;12223;42.650;23.364;2023-04-01T10:17:15;93278.44;;;16.54;49.77
11099;BME280;12223;42.650;23.364;2023-04-01T10:19:53;93278.78;;;16.33;50.37
11099;BME280;12223;42.650;23.364;2023-04-01T10:22:29;93264.19;;;15.75;52.75
11099;BME280;12223;42.650;23.364;2023-04-01T10:25:17;93274.94;;;15.88;52.27
11099;BME280;12223;42.650;23.364;2023-04-01T10:27:58;93276.34;;;15.62;52.49
11099;BME280;12223;42.650;23.364;2023-04-01T10:36:26;93275.00;;;16.02;52.72
11099;BME280;12223;42.650;23.364;2023-04-01T10:44:42;93248.59;;;15.68;54.60
11099;BME280;12223;42.650;23.364;2023-04-01T10:50:07;93245.72;;;15.64;55.27
11099;BME280;12223;42.650;23.364;2023-04-01T10:52:48;93247.81;;;15.67;55.40
11099;BME280;12223;42.650;23.364;2023-04-01T10:55:34;93224.88;;;15.53;55.96
11099;BME280;12223;42.650;23.364;2023-04-01T10:58:08;93219.03;;;15.69;52.88
11099;BME280;12223;42.650;23.364;2023-04-01T11:06:25;93228.03;;;15.74;50.77
11099;BME280;12223;42.650;23.364;2023-04-01T11:11:54;93225.72;;;16.04;48.65
11099;BME280;12223;42.650;23.364;2023-04-01T11:14:32;93212.41;;;16.37;44.08
11099;BME280;12223;42.650;23.364;2023-04-01T11:17:22;93194.13;;;16.44;44.83
11099;BME280;12223;42.650;23.364;2023-04-01T11:22:58;93210.13;;;16.63;43.00
11099;BME280;12223;42.650;23.364;2023-04-01T11:28:20;93223.66;;;16.80;42.46
11099;BME280;12223;42.650;23.364;2023-04-01T11:30:57;93234.88;;;16.77;42.29
11099;BME280;12223;42.650;23.364;2023-04-01T11:33:31;93245.66;;;16.72;42.74
11099;BME280;12223;42.650;23.364;2023-04-01T11:36:06;93264.69;;;16.65;43.69
11099;BME280;12223;42.650;23.364;2023-04-01T11:41:25;93290.47;;;16.51;45.17
11099;BME280;12223;42.650;23.364;2023-04-01T11:44:01;93305.78;;;16.27;50.83
11099;BME280;12223;42.650;23.364;2023-04-01T11:46:33;93331.50;;;15.56;56.93
11099;BME280;12223;42.650;23.364;2023-04-01T11:49:06;93366.66;;;14.38;74.35
11099;BME280;12223;42.650;23.364;2023-04-01T11:51:38;93400.91;;;14.29;77.69
11099;BME280;12223;42.650;23.364;2023-04-01T11:54:12;93441.34;;;14.21;83.09
11099;BME280;12223;42.650;23.364;2023-04-01T11:56:50;93458.81;;;13.68;100.00
11099;BME280;12223;42.650;23.364;2023-04-01T11:59:31;93467.91;;;13.01;100.00
11099;BME280;12223;42.650;23.364;2023-04-01T12:02:06;93466.22;;;12.24;100.00
11099;BME280;12223;42.650;23.364;2023-04-01T12:04:45;93438.13;;;12.03;100.00
11099;BME280;12223;42.650;23.364;2023-04-01T12:07:21;93404.75;;;11.92;100.00
11099;BME280;12223;42.650;23.364;2023-04-01T12:09:52;93346.47;;;11.66;100.00
11099;BME280;12223;42.650;23.364;2023-04-01T12:12:27;93305.81;;;11.05;100.00
11099;BME280;12223;42.650;23.364;2023-04-01T12:15:02;93270.28;;;11.43;100.00
11099;BME280;12223;42.650;23.364;2023-04-01T12:17:35;93286.38;;;11.37;100.00
11099;BME280;12223;42.650;23.364;2023-04-01T12:20:14;93286.06;;;11.18;100.00
11099;BME280;12223;42.650;23.364;2023-04-01T12:22:46;93291.09;;;11.29;100.00
11099;BME280;12223;42.650;23.364;2023-04-01T12:25:27;93317.53;;;11.24;100.00
11099;BME280;12223;42.650;23.364;2023-04-01T12:28:00;93343.16;;;11.29;100.00
11099;BME280;12223;42.650;23.364;2023-04-01T12:30:38;93351.91;;;11.35;100.00
11099;BME280;12223;42.650;23.364;2023-04-01T12:33:19;93336.72;;;11.05;100.00
11099;BME280;12223;42.650;23.364;2023-04-01T12:35:54;93310.81;;;11.07;100.00
11099;BME280;12223;42.650;23.364;2023-04-01T12:38:25;93322.97;;;11.03;100.00
11099;BME280;12223;42.650;23.364;2023-04-01T12:41:03;93290.94;;;10.89;100.00
11099;BME280;12223;42.650;23.364;2023-04-01T12:43:41;93255.47;;;10.75;100.00
11099;BME280;12223;42.650;23.364;2023-04-01T12:46:15;93223.97;;;10.53;100.00
11099;BME280;12223;42.650;23.364;2023-04-01T12:48:57;93187.47;;;10.35;100.00
11099;BME280;12223;42.650;23.364;2023-04-01T12:51:36;93158.81;;;10.12;100.00
11099;BME280;12223;42.650;23.364;2023-04-01T12:54:32;93126.56;;;9.99;100.00
11099;BME280;12223;42.650;23.364;2023-04-01T12:57:10;93098.56;;;9.93;100.00
11099;BME280;12223;42.650;23.364;2023-04-01T12:59:47;93095.88;;;9.83;100.00
11099;BME280;12223;42.650;23.364;2023-04-01T13:02:21;93067.63;;;9.74;100.00
11099;BME280;12223;42.650;23.364;2023-04-01T13:07:45;93047.63;;;9.78;100.00
11099;BME280;12223;42.650;23.364;2023-04-01T13:10:18;93047.63;;;9.83;100.00
11099;BME280;12223;42.650;23.364;2023-04-01T13:13:00;93041.59;;;9.87;100.00
11099;BME280;12223;42.650;23.364;2023-04-01T13:15:33;93081.72;;;9.99;100.00
11099;BME280;12223;42.650;23.364;2023-04-01T13:18:07;93057.59;;;10.18;100.00
11099;BME280;12223;42.650;23.364;2023-04-01T13:20:41;93071.38;;;10.50;100.00
11099;BME280;12223;42.650;23.364;2023-04-01T13:23:14;93114.00;;;10.89;100.00
11099;BME280;12223;42.650;23.364;2023-04-01T13:25:43;93202.03;;;11.20;100.00
11099;BME280;12223;42.650;23.364;2023-04-01T13:28:15;93294.88;;;11.54;100.00
11099;BME280;12223;42.650;23.364;2023-04-01T13:30:45;93340.47;;;11.91;100.00
11099;BME280;12223;42.650;23.364;2023-04-01T13:33:16;93355.34;;;12.38;100.00
11099;BME280;12223;42.650;23.364;2023-04-01T13:35:53;93347.88;;;13.01;100.00
11099;BME280;12223;42.650;23.364;2023-04-01T13:38:31;93334.94;;;12.74;100.00
11099;BME280;12223;42.650;23.364;2023-04-01T13:41:07;93338.00;;;13.32;100.00
11099;BME280;12223;42.650;23.364;2023-04-01T13:43:48;93331.50;;;12.53;100.00
11099;BME280;12223;42.650;23.364;2023-04-01T13:46:23;93307.94;;;12.41;100.00
11099;BME280;12223;42.650;23.364;2023-04-01T13:49:01;93298.41;;;12.15;100.00
11099;BME280;12223;42.650;23.364;2023-04-01T13:51:43;93308.69;;;12.82;100.00
11099;BME280;12223;42.650;23.364;2023-04-01T13:54:36;93291.25;;;12.61;100.00
11099;BME280;12223;42.650;23.364;2023-04-01T13:57:16;93317.44;;;12.83;100.00
11099;BME280;12223;42.650;23.364;2023-04-01T13:59:59;93312.63;;;12.90;100.00
11099;BME280;12223;42.650;23.364;2023-04-01T14:02:36;93311.28;;;13.13;100.00
11099;BME280;12223;42.650;23.364;2023-04-01T14:05:13;93296.41;;;13.22;100.00
11099;BME280;12223;42.650;23.364;2023-04-01T14:07:55;93293.78;;;13.17;100.00
11099;BME280;12223;42.650;23.364;2023-04-01T14:10:25;93290.03;;;13.23;100.00
11099;BME280;12223;42.650;23.364;2023-04-01T14:12:57;93290.91;;;12.93;100.00
11099;BME280;12223;42.650;23.364;2023-04-01T14:15:29;93294.63;;;12.87;100.00
11099;BME280;12223;42.650;23.364;2023-04-01T14:18:08;93270.91;;;12.31;100.00